createdAt,value
2022-11-20T00:00:00.493Z,72.44
2022-11-20T00:04:03.677Z,72.46
2022-11-20T00:08:09.098Z,72.27
2022-11-20T00:12:12.590Z,71.57
2022-11-20T00:16:16.941Z,71.92
2022-11-20T00:20:25.928Z,71.92
2022-11-20T00:24:31.005Z,72.44
2022-11-20T00:28:34.717Z,71.78
2022-11-20T00:32:37.711Z,72.20
2022-11-20T00:36:41.158Z,71.93
2022-11-20T00:40:45.728Z,71.64
2022-11-20T00:44:48.992Z,72.01
2022-11-20T00:48:52.321Z,71.72
2022-11-20T00:52:55.725Z,72.16
2022-11-20T00:57:00.925Z,71.58
2022-11-20T01:01:05.361Z,71.85
2022-11-20T01:05:09.568Z,71.46
2022-11-20T01:09:15.126Z,72.13
2022-11-20T01:13:45.285Z,71.63
2022-11-20T01:17:48.769Z,71.40
2022-11-20T01:21:54.344Z,71.53
2022-11-20T01:25:57.406Z,71.45
2022-11-20T01:30:02.230Z,71.28
2022-11-20T01:34:09.136Z,71.10
2022-11-20T01:38:12.658Z,71.10
2022-11-20T01:42:33.761Z,71.05
2022-11-20T01:46:40.802Z,71.11
2022-11-20T01:50:44.887Z,71.21
2022-11-20T01:54:53.294Z,71.36
2022-11-20T01:59:01.024Z,71.57
2022-11-20T02:03:09.999Z,71.99
2022-11-20T02:07:14.392Z,71.85
2022-11-20T02:11:17.449Z,71.33
2022-11-20T02:15:24.055Z,71.48
2022-11-20T02:19:33.073Z,71.79
2022-11-20T02:23:41.970Z,71.63
2022-11-20T02:27:46.863Z,71.82
2022-11-20T02:31:50.356Z,72.01
2022-11-20T02:35:53.454Z,71.67
2022-11-20T02:39:56.968Z,71.43
2022-11-20T02:44:02.178Z,72.08
2022-11-20T02:48:05.474Z,72.07
2022-11-20T02:52:09.208Z,71.47
2022-11-20T02:56:13.534Z,72.04
2022-11-20T03:00:18.696Z,72.42
2022-11-20T03:04:22.217Z,71.44
2022-11-20T03:08:25.804Z,71.72
2022-11-20T03:12:28.837Z,71.67
2022-11-20T03:16:34.537Z,72.01
2022-11-20T03:20:37.715Z,71.92
2022-11-20T03:24:41.242Z,72.37
2022-11-20T03:28:48.874Z,72.13
2022-11-20T03:32:56.310Z,72.27
2022-11-20T03:36:59.972Z,72.63
2022-11-20T03:41:04.812Z,72.56
2022-11-20T03:45:08.584Z,72.19
2022-11-20T03:49:13.518Z,72.11
2022-11-20T03:53:17.675Z,72.43
2022-11-20T03:57:20.672Z,72.18
2022-11-20T04:01:26.212Z,72.27
2022-11-20T04:05:31.628Z,72.33
2022-11-20T04:09:34.897Z,72.06
2022-11-20T04:13:39.024Z,72.34
2022-11-20T04:17:42.543Z,72.55
2022-11-20T04:21:47.440Z,72.52
2022-11-20T04:25:50.941Z,72.88
2022-11-20T04:29:54.518Z,72.99
2022-11-20T04:33:58.204Z,72.60
2022-11-20T04:38:03.241Z,72.93
2022-11-20T04:42:24.493Z,73.07
2022-11-20T04:46:29.003Z,72.95
2022-11-20T04:50:32.725Z,72.90
2022-11-20T04:54:37.661Z,73.20
2022-11-20T04:58:41.359Z,72.67
2022-11-20T05:02:44.847Z,72.95
2022-11-20T05:06:48.460Z,72.74
2022-11-20T05:10:53.240Z,73.07
2022-11-20T05:14:56.808Z,72.73
2022-11-20T05:18:59.932Z,72.66
2022-11-20T05:23:03.435Z,72.58
2022-11-20T05:27:08.508Z,72.27
2022-11-20T05:31:14.292Z,72.48
2022-11-20T05:35:17.986Z,72.49
2022-11-20T05:39:21.816Z,72.46
2022-11-20T05:43:26.596Z,72.64
2022-11-20T05:47:33.676Z,73.27
2022-11-20T05:51:36.732Z,73.22
2022-11-20T05:55:40.245Z,73.34
2022-11-20T05:59:45.540Z,73.32
2022-11-20T06:03:49.093Z,72.79
2022-11-20T06:07:52.626Z,72.64
2022-11-20T06:11:56.114Z,73.33
2022-11-20T06:16:00.606Z,72.96
2022-11-20T06:20:04.411Z,73.18
2022-11-20T06:24:08.606Z,73.21
2022-11-20T06:28:12.320Z,72.99
2022-11-20T06:32:16.998Z,73.04
2022-11-20T06:36:24.841Z,73.56
2022-11-20T06:40:28.436Z,72.82
2022-11-20T06:44:32.254Z,73.09
2022-11-20T06:48:37.087Z,72.68
2022-11-20T06:52:43.667Z,73.05
2022-11-20T06:56:49.432Z,73.18
2022-11-20T07:00:52.915Z,72.68
2022-11-20T07:04:57.428Z,72.30
2022-11-20T07:09:00.914Z,72.69
2022-11-20T07:13:03.988Z,72.73
2022-11-20T07:17:07.027Z,72.19
2022-11-20T07:21:13.151Z,72.35
2022-11-20T07:25:16.661Z,72.77
2022-11-20T07:29:20.553Z,72.95
2022-11-20T07:33:24.427Z,72.49
2022-11-20T07:37:29.132Z,72.66
2022-11-20T07:41:32.785Z,73.00
2022-11-20T07:45:37.382Z,72.30
2022-11-20T07:49:40.915Z,72.48
2022-11-20T07:53:45.286Z,73.19
2022-11-20T07:57:48.829Z,72.71
2022-11-20T08:01:52.646Z,73.03
2022-11-20T08:05:56.259Z,72.79
2022-11-20T08:10:01.065Z,72.90
2022-11-20T08:14:15.401Z,72.22
2022-11-20T08:18:35.410Z,72.57
2022-11-20T08:22:38.935Z,71.73
2022-11-20T08:26:44.124Z,71.19
2022-11-20T08:30:47.239Z,71.12
2022-11-20T08:34:50.724Z,71.00
2022-11-20T08:38:56.283Z,70.91
2022-11-20T08:43:02.374Z,71.36
2022-11-20T08:47:05.548Z,71.03
2022-11-20T08:51:09.073Z,70.92
2022-11-20T08:55:13.401Z,70.96
2022-11-20T08:59:43.495Z,70.81
2022-11-20T09:03:43.283Z,71.06
2022-11-20T09:07:46.754Z,71.94
2022-11-20T09:11:51.081Z,71.56
2022-11-20T09:16:00.945Z,71.57
2022-11-20T09:20:05.702Z,71.87
2022-11-20T09:24:09.288Z,72.23
2022-11-20T09:28:12.421Z,72.35
2022-11-20T09:32:17.670Z,72.25
2022-11-20T09:36:20.834Z,73.31
2022-11-20T09:40:25.905Z,74.00
2022-11-20T09:44:43.131Z,73.49
2022-11-20T09:49:10.095Z,73.41
2022-11-20T09:53:23.241Z,72.16
2022-11-20T09:57:33.090Z,70.08
2022-11-20T10:01:42.603Z,69.41
2022-11-20T10:05:50.064Z,69.39
2022-11-20T10:09:56.882Z,68.25
2022-11-20T10:14:10.485Z,65.90
2022-11-20T10:18:31.887Z,67.17
2022-11-20T10:22:50.647Z,66.77
2022-11-20T10:27:06.034Z,68.60
2022-11-20T10:31:23.776Z,69.52
2022-11-20T10:35:35.054Z,69.73
2022-11-20T10:39:45.075Z,69.56
2022-11-20T10:43:49.778Z,70.81
2022-11-20T10:47:53.365Z,71.30
2022-11-20T10:52:08.544Z,70.26
2022-11-20T10:56:21.258Z,69.15
2022-11-20T11:00:25.094Z,67.28
2022-11-20T11:04:39.064Z,68.68
2022-11-20T11:08:42.752Z,66.48
2022-11-20T11:12:49.177Z,64.85
2022-11-20T11:16:54.716Z,63.48
2022-11-20T11:20:59.015Z,62.12
2022-11-20T11:25:02.535Z,62.43
2022-11-20T11:29:07.780Z,62.53
2022-11-20T11:33:14.290Z,62.24
2022-11-20T11:37:23.126Z,63.68
2022-11-20T11:41:33.197Z,64.43
2022-11-20T11:45:39.428Z,65.70
2022-11-20T11:49:43.071Z,65.86
2022-11-20T11:53:47.032Z,66.20
2022-11-20T11:57:55.722Z,66.27
2022-11-20T12:02:06.267Z,67.50
2022-11-20T12:06:16.204Z,68.14
2022-11-20T12:10:25.165Z,68.16
2022-11-20T12:14:35.856Z,67.55
2022-11-20T12:18:42.670Z,68.03
2022-11-20T12:22:54.765Z,67.81
2022-11-20T12:27:16.100Z,67.69
2022-11-20T12:31:40.647Z,66.95
2022-11-20T12:36:07.341Z,67.10
2022-11-20T12:40:30.088Z,65.69
2022-11-20T12:45:09.008Z,67.07
2022-11-20T12:49:28.338Z,67.54
2022-11-20T12:53:41.957Z,67.46
2022-11-20T12:57:54.572Z,66.71
2022-11-20T13:02:06.757Z,67.57
2022-11-20T13:06:16.882Z,68.02
2022-11-20T13:10:31.245Z,68.16
2022-11-20T13:14:40.255Z,67.64
2022-11-20T13:18:47.665Z,68.01
2022-11-20T13:22:53.452Z,67.78
2022-11-20T13:27:21.766Z,68.28
2022-11-20T13:31:33.262Z,67.73
2022-11-20T13:35:38.104Z,67.43
2022-11-20T13:39:41.541Z,67.64
2022-11-20T13:43:47.544Z,67.31
2022-11-20T13:47:51.903Z,67.05
2022-11-20T13:52:04.454Z,67.38
2022-11-20T13:56:16.312Z,68.06
2022-11-20T14:00:23.254Z,68.22
2022-11-20T14:04:32.173Z,69.15
2022-11-20T14:08:41.150Z,69.05
2022-11-20T14:12:44.274Z,69.20
2022-11-20T14:16:51.002Z,69.83
2022-11-20T14:20:54.658Z,69.68
2022-11-20T14:25:08.566Z,69.78
2022-11-20T14:29:15.266Z,69.40
2022-11-20T14:33:21.061Z,69.53
2022-11-20T14:37:29.439Z,69.89
2022-11-20T14:41:33.828Z,69.79
2022-11-20T14:45:37.563Z,69.62
2022-11-20T14:49:43.487Z,69.81
2022-11-20T14:53:47.053Z,69.46
2022-11-20T14:57:58.238Z,70.51
2022-11-20T15:02:03.678Z,70.56
2022-11-20T15:06:09.944Z,70.82
2022-11-20T15:10:16.862Z,70.59
2022-11-20T15:14:20.005Z,70.92
2022-11-20T15:18:26.018Z,71.42
2022-11-20T15:22:30.955Z,71.19
2022-11-20T15:26:35.447Z,71.23
2022-11-20T15:30:38.539Z,71.58
2022-11-20T15:34:42.297Z,71.37
2022-11-20T15:38:46.910Z,71.82
2022-11-20T15:53:38.847Z,72.15
2022-11-20T15:57:43.647Z,72.31
2022-11-20T16:01:46.905Z,72.86
2022-11-20T16:05:50.638Z,72.81
2022-11-20T16:09:53.738Z,73.30
2022-11-20T16:14:16.125Z,72.79
2022-11-20T16:18:21.196Z,73.03
2022-11-20T16:22:25.017Z,72.47
2022-11-20T16:26:28.110Z,72.52
2022-11-20T16:30:36.814Z,72.06
2022-11-20T16:34:40.257Z,71.37
2022-11-20T16:38:44.679Z,70.81
2022-11-20T16:42:47.784Z,70.90
2022-11-20T16:46:52.726Z,70.95
2022-11-20T16:50:56.603Z,70.94
2022-11-20T16:54:59.938Z,70.71
2022-11-20T16:59:04.444Z,70.38
2022-11-20T17:03:09.667Z,70.21
2022-11-20T17:07:13.310Z,69.92
2022-11-20T17:11:18.849Z,70.08
2022-11-20T17:15:21.971Z,69.58
2022-11-20T17:19:27.100Z,69.63
2022-11-20T17:23:30.657Z,70.34
2022-11-20T17:27:33.988Z,69.90
2022-11-20T17:31:40.182Z,69.27
2022-11-20T17:35:47.697Z,68.81
2022-11-20T17:39:50.916Z,68.02
2022-11-20T17:43:56.388Z,69.16
2022-11-20T17:48:00.102Z,68.39
2022-11-20T17:52:05.594Z,68.09
2022-11-20T17:56:27.341Z,68.94
2022-11-20T18:00:32.376Z,68.28
2022-11-20T18:04:35.873Z,68.29
2022-11-20T18:08:41.718Z,68.07
2022-11-20T18:12:45.154Z,68.20
2022-11-20T18:16:50.545Z,67.86
2022-11-20T18:20:56.391Z,68.50
2022-11-20T18:25:02.057Z,67.78
2022-11-20T18:29:07.457Z,67.31
2022-11-20T18:33:11.448Z,67.71
2022-11-20T18:37:17.393Z,67.32
2022-11-20T18:41:41.278Z,67.88
2022-11-20T18:45:45.290Z,68.81
2022-11-20T18:49:52.864Z,67.31
2022-11-20T18:53:56.167Z,68.58
2022-11-20T18:58:00.757Z,67.97
2022-11-20T19:02:04.632Z,68.33
2022-11-20T19:06:08.470Z,68.28
2022-11-20T19:10:11.875Z,66.66
2022-11-20T19:14:17.486Z,68.04
2022-11-20T19:18:22.129Z,67.47
2022-11-20T19:22:25.219Z,67.60
2022-11-20T19:26:29.153Z,67.76
2022-11-20T19:30:35.058Z,67.72
2022-11-20T19:34:38.298Z,68.22
2022-11-20T19:38:47.676Z,66.46
2022-11-20T19:42:51.675Z,67.22
2022-11-20T19:46:57.336Z,67.60
2022-11-20T19:51:04.951Z,67.48
2022-11-20T19:55:08.271Z,66.91
2022-11-20T19:59:11.968Z,66.16
2022-11-20T20:03:21.813Z,66.31
2022-11-20T20:07:24.977Z,67.93
2022-11-20T20:11:30.473Z,66.87
2022-11-20T20:15:34.232Z,66.85
2022-11-20T20:19:39.127Z,66.66
2022-11-20T20:23:43.819Z,66.83
2022-11-20T20:27:47.275Z,66.93
2022-11-20T20:31:50.277Z,67.03
2022-11-20T20:35:55.135Z,66.96
2022-11-20T20:39:59.103Z,67.84
2022-11-20T20:44:20.030Z,67.43
2022-11-20T20:48:26.152Z,67.68
2022-11-20T20:52:34.458Z,67.86
2022-11-20T20:56:38.253Z,68.02
2022-11-20T21:00:41.548Z,68.05
2022-11-20T21:04:45.162Z,67.59
2022-11-20T21:08:51.136Z,67.24
2022-11-20T21:12:57.097Z,66.67
2022-11-20T21:17:03.320Z,65.81
2022-11-20T21:21:25.153Z,65.56
2022-11-20T21:25:30.361Z,65.85
2022-11-20T21:29:33.385Z,65.13
2022-11-20T21:33:40.974Z,65.47
2022-11-20T21:37:44.533Z,65.38
2022-11-20T21:41:49.763Z,65.05
2022-11-20T21:45:53.243Z,64.80
2022-11-20T21:49:56.856Z,65.53
2022-11-20T21:54:03.238Z,66.64
2022-11-20T21:58:08.157Z,67.01
2022-11-20T22:02:13.205Z,67.22
2022-11-20T22:06:16.891Z,67.01
2022-11-20T22:10:20.343Z,66.84
2022-11-20T22:14:25.653Z,66.14
2022-11-20T22:18:29.910Z,67.32
2022-11-20T22:22:33.615Z,66.75
2022-11-20T22:26:40.461Z,66.27
2022-11-20T22:30:45.617Z,64.85
2022-11-20T22:34:49.465Z,67.21
2022-11-20T22:38:52.818Z,66.89
2022-11-20T22:42:56.722Z,66.62
2022-11-20T22:47:01.875Z,66.75
2022-11-20T22:51:06.638Z,67.46
2022-11-20T22:55:15.051Z,65.72
2022-11-20T22:59:19.880Z,66.06
2022-11-20T23:03:24.449Z,65.34
2022-11-20T23:07:28.083Z,65.47
2022-11-20T23:11:33.196Z,65.81
2022-11-20T23:15:37.526Z,66.22
2022-11-20T23:19:41.934Z,66.31
2022-11-20T23:23:49.205Z,66.09
2022-11-20T23:27:52.334Z,65.19
2022-11-20T23:31:55.489Z,65.74
2022-11-20T23:36:00.359Z,65.29
2022-11-20T23:40:04.909Z,64.86
2022-11-20T23:44:08.470Z,64.11
2022-11-20T23:48:12.243Z,63.78
2022-11-20T23:52:17.152Z,64.64
2022-11-20T23:56:20.716Z,64.88
